Weather at Vukovar Borovo N Airport [CLOSED]

Public forecast

Using degrees Celsius for public forecast. Weather courtesy of forecast.io.

Closest aviation weather report (METAR) to Vukovar Borovo N Airport

Closest report is Osijek Airport, 7.9 nm (14.6 km) NW. Retrieved 2021/01/23 01:30 UTC (3 minutes ago):

LDOS 230130Z 13013KT CAVOK 09/05 Q1002

Closest aviation forecast (TAF) to Vukovar Borovo N Airport

Closest forecast is Osijek Airport, 7.9 nm (14.6 km) NW. Retrieved 2021-01-23 00:00 UTC (2 hours ago):

TAF LDOS 222325Z 2300/2400 13012KT CAVOK TX15/2312Z TN07/2323Z TEMPO 2314/2320 18008KT